Latest Weather Observations for Gove Airport

IDD60801

Issued at 8:11 am CST Monday 1 March 2021 (issued every 10 minutes, with the page automatically refreshed every 10 minutes)

About weather observations | Map of weather stations | Latest weather observations for NT | Other Formats
Station Details ID: 014508 Name: GOVE AIRPORT Lat: -12.27 Lon: 136.82 Height: 51.6 m
Data from the previous 72 hours. | See also: Recent months at Gove Airport
Date/Time
CST
Temp
°C
App
Temp
°C
Dew
Point
°C
Rel
Hum
%
Delta-T
°C
Wind Press
QNH
hPa
Press
MSL
hPa
Rain since
9am
mm
Dir  Spd
km/h
Gust
km/h
Spd
kts
Gust
kts
01/08:00am 28.9 31.9 25.5 82 2.4 WNW 20 28 11 15 1008.3 1007.9 14.0
01/07:30am 28.3 31.8 25.5 85 2.0 WNW 17 26 9 14 1007.9 1007.5 14.0
01/07:00am 27.9 31.6 25.7 88 1.6 WNW 17 24 9 13 1007.6 1007.2 14.0
01/06:30am 27.6 31.6 25.6 89 1.4 WNW 15 19 8 10 1007.2 1006.9 14.0
01/06:00am 27.6 31.5 25.4 88 1.6 WNW 15 20 8 11 1007.1 1006.8 14.0
01/05:30am 27.5 31.4 25.5 89 1.4 WNW 15 24 8 13 1006.7 1006.4 14.0
01/05:00am 27.5 31.4 25.5 89 1.4 WNW 15 22 8 12 1006.5 1006.2 14.0
01/04:30am 27.6 31.5 25.4 88 1.6 WNW 15 19 8 10 1006.3 1006.0 14.0
01/04:00am 27.6 31.5 25.4 88 1.5 WNW 15 20 8 11 1006.3 1006.0 14.0
01/03:30am 27.4 31.6 25.4 89 1.4 WNW 13 19 7 10 1006.5 1006.2 14.0
01/03:00am 27.4 31.3 25.4 89 1.4 WNW 15 22 8 12 1006.5 1006.2 14.0
01/02:30am 27.5 31.7 25.3 88 1.5 WNW 13 17 7 9 1006.7 1006.4 14.0
01/02:00am 27.6 32.2 25.4 88 1.5 WNW 11 17 6 9 1006.8 1006.5 14.0
01/01:30am 27.8 32.0 25.4 87 1.7 WNW 13 22 7 12 1007.2 1006.9 14.0
01/01:00am 27.8 32.2 25.6 88 1.6 WNW 13 19 7 10 1007.5 1007.1 14.0
01/12:30am 27.8 32.0 25.4 87 1.7 WNW 13 19 7 10 1007.6 1007.2 14.0
01/12:00am 27.8 32.0 25.4 87 1.7 WNW 13 19 7 10 1007.9 1007.5 14.0
 
Date/Time
CST
Temp
°C
App
Temp
°C
Dew
Point
°C
Rel
Hum
%
Delta-T
°C
Wind Press
QNH
hPa
Press
MSL
hPa
Rain since
9am
mm
Dir  Spd
km/h
Gust
km/h
Spd
kts
Gust
kts
28/11:30pm 28.0 32.6 25.4 86 1.8 WNW 11 17 6 9 1008.4 1008.0 14.0
28/11:00pm 28.2 32.3 25.2 84 2.1 WNW 13 20 7 11 1008.6 1008.2 14.0
28/10:30pm 28.1 32.3 25.3 85 2.0 WNW 13 17 7 9 1008.6 1008.2 14.0
28/10:00pm 27.8 32.5 25.6 88 1.6 NW 11 17 6 9 1008.3 1007.9 14.0
28/09:30pm 28.2 32.6 25.0 83 2.2 WNW 11 15 6 8 1007.7 1007.3 14.0
28/09:00pm 27.9 33.2 24.9 84 2.1 NW 6 9 3 5 1007.6 1007.2 14.0
28/08:30pm 28.0 32.3 24.2 80 2.6 WNW 9 9 5 5 1007.0 1006.7 14.0
28/08:00pm 28.1 32.9 24.5 81 2.5 W 7 9 4 5 1006.6 1006.3 14.0
28/07:30pm 28.3 33.0 24.3 79 2.8 W 7 11 4 6 1006.1 1005.8 13.8
28/07:00pm 28.9 35.7 25.5 82 2.4 CALM 0 0 0 0 1005.8 1005.5 13.8
28/06:30pm 29.5 34.8 25.3 78 3.0 SSW 7 11 4 6 1005.2 1004.9 13.8
28/06:00pm 29.7 34.2 25.2 77 3.2 WSW 11 17 6 9 1004.9 1004.6 13.8
28/05:30pm 29.9 34.9 25.4 77 3.2 W 9 13 5 7 1004.6 1004.3 13.8
28/05:00pm 29.4 34.3 25.2 78 3.0 WNW 9 13 5 7 1004.5 1004.2 13.8
28/04:30pm 27.6 32.5 24.6 84 2.1 WNW 7 11 4 6 1004.5 1004.2 13.8
28/04:00pm 25.2 27.8 22.7 86 1.7 WNW 13 17 7 9 1004.5 1004.2 13.8
28/03:53pm 24.5 26.6 22.4 88 1.4 WNW 15 17 8 9 1004.8 1004.5 13.8
28/03:38pm 24.4 26.7 22.8 91 1.1 WNW 15 20 8 11 1005.3 1005.0 13.2
28/03:30pm 24.6 26.2 23.2 92 1.0 W 20 35 11 19 1005.5 1005.2 12.2
28/03:13pm 25.3 26.4 22.4 84 2.0 W 20 32 11 17 1005.7 1005.4 1.2
28/03:00pm 28.3 29.5 23.9 77 3.0 WNW 24 39 13 21 1005.5 1005.2 0.0
28/02:54pm 29.4 30.1 23.6 71 4.0 WNW 26 39 14 21 1005.1 1004.8 0.0
28/02:30pm 31.7 33.4 24.0 63 5.4 NW 22 32 12 17 1005.3 1005.0 0.0
28/02:00pm 31.9 33.6 24.0 63 5.5 NNW 22 32 12 17 1005.8 1005.5 0.0
28/01:30pm 31.3 34.3 24.7 68 4.6 WNW 17 24 9 13 1006.3 1006.0 0.0
28/01:00pm 31.9 33.8 25.0 67 4.9 NW 24 32 13 17 1006.8 1006.5 0.0
28/12:30pm 31.5 33.5 24.6 67 4.9 NW 22 32 12 17 1007.3 1007.0 0.0
28/12:00pm 31.1 33.6 24.5 68 4.6 NW 19 28 10 15 1007.7 1007.3 0.0
28/11:30am 31.4 32.7 22.4 59 6.2 NNW 19 26 10 14 1008.0 1007.6 0.0
28/11:00am 31.9 34.5 22.6 58 6.4 WNW 13 20 7 11 1008.1 1007.7 0.0
28/10:30am 31.3 35.0 23.9 64 5.2 W 11 19 6 10 1008.4 1008.0 0.0
28/10:00am 30.5 34.2 24.6 70 4.1 WSW 13 19 7 10 1008.5 1008.1 0.0
28/09:30am 29.5 34.3 24.4 74 3.6 W 7 11 4 6 1008.3 1007.9 0.0
28/09:00am 29.1 33.1 24.4 76 3.3 WNW 11 15 6 8 1008.3 1007.9 0.0
28/08:30am 29.1 33.1 25.1 79 2.8 NW 13 19 7 10 1008.0 1007.6 0.0
28/08:00am 27.4 32.5 24.7 85 1.9 W 6 9 3 5 1007.9 1007.5 0.0
28/07:30am 26.3 31.0 24.3 89 1.4 WSW 7 9 4 5 1007.6 1007.2 0.0
28/07:00am 25.6 30.2 23.8 90 1.2 W 6 7 3 4 1007.1 1006.8 0.0
28/06:30am 25.6 30.2 23.8 90 1.2 WSW 6 9 3 5 1006.7 1006.4 0.0
28/06:00am 25.5 30.2 23.9 91 1.1 W 6 7 3 4 1006.5 1006.2 0.0
28/05:30am 25.6 30.4 24.2 92 1.0 WSW 6 7 3 4 1006.3 1006.0 0.0
28/05:00am 25.8 31.3 24.6 93 0.8 WSW 4 9 2 5 1006.3 1006.0 0.0
28/04:30am 25.8 31.8 24.2 91 1.1 CALM 0 0 0 0 1005.9 1005.6 0.0
28/04:00am 25.9 30.8 24.3 91 1.1 NW 6 9 3 5 1005.6 1005.3 0.0
28/03:30am 25.7 30.2 23.9 90 1.2 W 7 9 4 5 1005.7 1005.4 0.0
28/03:00am 25.6 30.3 24.0 91 1.1 WSW 6 7 3 4 1005.7 1005.4 0.0
28/02:30am 26.0 32.3 24.8 93 0.8 CALM 0 0 0 0 1005.8 1005.5 0.0
28/02:00am 26.0 30.9 24.6 92 1.0 SW 7 7 4 4 1006.3 1006.0 0.0
28/01:30am 26.1 31.1 24.5 91 1.1 SSW 6 7 3 4 1006.5 1006.2 0.0
28/01:00am 26.2 31.7 24.6 91 1.1 SW 4 7 2 4 1006.7 1006.4 0.0
28/12:30am 26.5 32.9 24.9 91 1.1 CALM 0 0 0 0 1006.9 1006.6 0.0
28/12:00am 26.6 33.2 25.2 92 1.0 CALM 0 0 0 0 1007.2 1006.9 0.0
 
Date/Time
CST
Temp
°C
App
Temp
°C
Dew
Point
°C
Rel
Hum
%
Delta-T
°C
Wind Press
QNH
hPa
Press
MSL
hPa
Rain since
9am
mm
Dir  Spd
km/h
Gust
km/h
Spd
kts
Gust
kts
27/11:30pm 26.4 32.6 24.6 90 1.3 CALM 0 0 0 0 1007.2 1006.9 0.0
27/11:00pm 26.7 33.2 25.1 91 1.1 CALM 0 6 0 3 1007.3 1007.0 0.0
27/10:30pm 26.7 33.2 25.1 91 1.1 CALM 0 6 0 3 1007.6 1007.2 0.0
27/10:00pm 26.7 33.2 25.1 91 1.1 CALM 0 0 0 0 1007.2 1006.9 0.0
27/09:30pm 26.8 33.5 25.4 92 1.0 CALM 0 0 0 0 1006.8 1006.5 0.0
27/09:00pm 26.7 33.2 25.1 91 1.1 CALM 0 6 0 3 1006.5 1006.2 0.0
27/08:30pm 26.5 31.5 24.5 89 1.4 S 6 9 3 5 1006.2 1005.9 0.0
27/08:00pm 26.6 31.6 24.8 90 1.3 SSW 7 9 4 5 1005.9 1005.6 0.0
27/07:30pm 26.9 31.7 24.5 87 1.7 SSW 7 9 4 5 1005.5 1005.2 0.0
27/07:00pm 27.6 34.1 25.0 86 1.8 CALM 0 6 0 3 1005.0 1004.7 0.0
27/06:30pm 27.9 33.1 25.1 85 2.0 WSW 7 11 4 6 1004.7 1004.4 0.0
27/06:00pm 28.1 32.2 23.0 74 3.5 NNE 6 9 3 5 1004.3 1004.0 0.0
27/05:30pm 27.8 32.9 23.4 77 3.0 WNW 2 7 1 4 1004.1 1003.8 0.0
27/05:00pm 28.5 32.2 23.2 73 3.6 W 9 17 5 9 1004.2 1003.9 0.0
27/04:30pm 30.0 32.7 22.9 65 4.9 ENE 13 17 7 9 1004.0 1003.7 0.0
27/04:00pm 30.7 33.9 23.1 64 5.2 NE 11 19 6 10 1003.8 1003.5 0.0
27/03:30pm 31.1 33.5 21.6 57 6.4 ENE 11 17 6 9 1003.6 1003.3 0.0
27/03:00pm 31.3 33.7 22.9 61 5.8 NE 15 24 8 13 1003.7 1003.4 0.0
27/02:30pm 31.1 33.4 22.1 58 6.1 ENE 13 20 7 11 1003.8 1003.5 0.0
27/02:00pm 31.0 32.7 22.3 60 5.9 NE 17 20 9 11 1004.0 1003.7 0.0
27/01:30pm 31.9 34.1 22.6 58 6.4 ENE 15 22 8 12 1004.5 1004.2 0.0
27/01:00pm 31.4 33.9 22.4 59 6.1 NE 13 22 7 12 1005.0 1004.7 0.0
27/12:30pm 31.3 34.8 22.9 61 5.8 NE 9 17 5 9 1005.6 1005.3 0.0
27/12:00pm 31.2 34.3 23.6 64 5.3 NE 13 19 7 10 1005.9 1005.6 0.0
27/11:30am 30.8 34.2 24.0 67 4.7 NE 13 20 7 11 1006.0 1005.7 0.0
27/11:00am 30.2 33.3 23.6 67 4.6 NE 13 19 7 10 1006.5 1006.2 0.0
27/10:30am 31.1 34.4 23.2 63 5.5 E 11 17 6 9 1006.5 1006.2 0.0
27/10:00am 30.9 35.1 24.1 67 4.7 E 9 15 5 8 1006.6 1006.3 0.0
27/09:30am 29.9 33.7 24.1 71 4.0 NE 11 17 6 9 1006.5 1006.2 0.0
27/09:00am 29.4 34.1 24.9 77 3.2 NE 9 13 5 7 1006.5 1006.2 3.8
27/08:30am 28.7 33.2 24.0 76 3.3 E 7 11 4 6 1006.4 1006.1 3.8
27/08:00am 27.4 33.3 24.7 85 1.9 SE 2 6 1 3 1006.1 1005.8 3.8
27/07:30am 25.5 30.2 23.9 91 1.1 SSW 6 7 3 4 1005.8 1005.5 3.8
27/07:00am 24.5 29.8 23.1 92 0.9 CALM 0 4 0 2 1005.4 1005.1 3.8
27/06:30am 24.7 30.4 23.7 94 0.7 CALM 0 0 0 0 1005.5 1005.2 3.8
27/06:00am 24.4 29.6 22.8 91 1.1 CALM 0 0 0 0 1005.3 1005.0 3.8
27/05:30am 24.7 30.0 23.1 91 1.1 CALM 0 0 0 0 1004.8 1004.5 3.8
27/05:00am 24.6 29.8 22.8 90 1.2 CALM 0 0 0 0 1004.5 1004.2 3.8
27/04:30am 24.9 30.3 23.3 91 1.1 CALM 0 0 0 0 1004.3 1004.0 3.8
27/04:00am 24.8 28.9 23.0 90 1.2 SSW 6 7 3 4 1004.3 1004.0 3.8
27/03:30am 24.7 28.8 23.3 92 1.0 SW 7 9 4 5 1004.3 1004.0 3.8
27/03:00am 25.0 30.6 23.6 92 1.0 CALM 0 0 0 0 1004.5 1004.2 3.8
27/02:30am 24.9 29.8 23.1 90 1.2 E 2 7 1 4 1004.6 1004.3 3.8
27/02:00am 24.7 28.8 22.9 90 1.2 E 6 7 3 4 1004.8 1004.5 3.8
27/01:30am 25.0 30.1 23.4 91 1.1 SE 2 9 1 5 1005.0 1004.7 3.8
27/01:00am 25.0 29.4 23.4 91 1.1 SSE 6 9 3 5 1005.6 1005.3 3.8
27/12:30am 24.8 28.9 23.0 90 1.2 W 6 7 3 4 1006.1 1005.8 3.8
27/12:00am 24.7 28.2 22.2 86 1.7 N 7 9 4 5 1006.3 1006.0 3.8
 
Date/Time
CST
Temp
°C
App
Temp
°C
Dew
Point
°C
Rel
Hum
%
Delta-T
°C
Wind Press
QNH
hPa
Press
MSL
hPa
Rain since
9am
mm
Dir  Spd
km/h
Gust
km/h
Spd
kts
Gust
kts
26/11:30pm 24.4 28.6 23.2 93 0.8 ENE 6 7 3 4 1007.1 1006.8 3.6
26/11:02pm 24.5 28.0 23.5 94 0.7 E 11 13 6 7 1007.7 1007.3 3.6
26/11:00pm 24.5 28.0 23.5 94 0.7 E 11 13 6 7 1007.7 1007.3 3.6
26/10:37pm 24.9 25.4 22.6 87 1.5 ESE 24 33 13 18 1007.5 1007.1 1.0
26/10:30pm 26.1 26.3 22.8 82 2.2 ESE 26 33 14 18 1007.3 1007.0 0.0
26/10:00pm 26.9 33.0 24.4 86 1.7 CALM 0 0 0 0 1006.7 1006.4 0.0
26/09:30pm 27.0 32.8 23.9 83 2.1 CALM 0 0 0 0 1006.6 1006.3 0.0
26/09:00pm 27.6 32.4 24.2 82 2.4 E 6 9 3 5 1006.3 1006.0 0.0
26/08:30pm 27.5 32.6 24.6 84 2.0 ESE 6 7 3 4 1006.2 1005.9 0.0
26/08:00pm 27.4 32.2 24.1 82 2.3 SE 6 7 3 4 1005.7 1005.4 0.0
26/07:30pm 27.8 32.1 23.6 78 2.9 E 7 9 4 5 1005.4 1005.1 0.0
26/07:00pm 28.1 31.9 23.5 76 3.2 ENE 9 11 5 6 1005.0 1004.7 0.0
26/06:30pm 28.3 32.1 23.4 75 3.4 NNE 9 13 5 7 1004.7 1004.4 0.0
26/06:00pm 28.6 32.1 23.5 74 3.5 NNE 11 13 6 7 1004.3 1004.0 0.0
26/05:30pm 29.2 32.1 23.2 70 4.1 NNE 13 19 7 10 1004.0 1003.7 0.0
26/05:00pm 29.6 33.2 23.8 71 4.0 NE 11 17 6 9 1003.5 1003.2 0.0
26/04:30pm 29.8 33.0 23.7 70 4.2 NNE 13 19 7 10 1003.2 1002.9 0.0
26/04:00pm 30.1 33.7 24.3 71 4.0 NNE 13 19 7 10 1003.4 1003.1 0.0
26/03:30pm 29.8 32.2 22.3 64 5.1 N 13 19 7 10 1003.6 1003.3 0.0
26/03:00pm 30.3 32.4 22.5 63 5.3 NE 15 20 8 11 1003.6 1003.3 0.0
26/02:30pm 30.5 31.5 21.0 57 6.4 NNE 17 26 9 14 1003.4 1003.1 0.0
26/02:00pm 31.2 33.6 22.2 58 6.1 NE 13 22 7 12 1003.9 1003.6 0.0
26/01:30pm 31.2 34.8 23.8 64 5.2 NE 11 20 6 11 1004.3 1004.0 0.0
26/01:00pm 30.4 33.0 23.3 66 4.9 NNE 15 26 8 14 1004.7 1004.4 0.0
26/12:30pm 30.3 33.5 23.7 68 4.6 NNE 13 19 7 10 1005.4 1005.1 0.0
26/12:00pm 30.2 33.4 24.4 71 4.1 NNE 15 22 8 12 1005.5 1005.2 0.0
26/11:30am 29.8 32.2 23.0 67 4.7 N 15 19 8 10 1005.7 1005.4 0.0
26/11:00am 29.9 32.4 23.1 67 4.7 NNE 15 24 8 13 1005.9 1005.6 0.0
26/10:30am 30.1 33.1 23.3 67 4.7 NE 13 20 7 11 1006.2 1005.9 0.0
26/10:00am 29.5 32.8 23.2 69 4.3 NE 11 17 6 9 1006.3 1006.0 0.0
26/09:30am 29.7 34.1 25.0 76 3.3 NNE 11 17 6 9 1006.2 1005.9 0.0
26/09:00am 29.2 33.5 24.3 75 3.4 NNW 9 13 5 7 1006.1 1005.8 0.0
26/08:30am 28.6 33.4 24.2 77 3.1 N 6 11 3 6 1005.8 1005.5 0.0

Other formats

Comma delimited format used in spreadsheet applications
http://www.bom.gov.au/fwo/IDD60801/IDD60801.94150.axf

JavaScript Object Notation format (JSON) in row-major order
http://www.bom.gov.au/fwo/IDD60801/IDD60801.94150.json

Data quality

Most of these data are generated automatically and are frequently updated. Quality checks on data are not normally performed. It is possible for incorrect values to appear. Refer to information at About Latest Weather Observations and please check the disclaimer before using these data.